Puerto De La Cruz, Spain
Current Conditions -  °F | °C
As of 10:00 AM on Tuesday 21 Oct 2014 (Local Time) from GCXO Reporting Station
Broken Clouds Broken Clouds  
Wind Chill: 66°   Ceiling: 6000
Heat Index: 66°   Visibility: 6mi
Dew Point: 54°   Wind: 9mph
Humidity: 64%   Direction: 150°SSE
Pressure: 30.15"   Gusts: NA
Location:  28.41°N, 16.55°W
Report Text: GCXO 210900Z 15008KT 110V190 9999 FEW015 BKN060 19/12 Q1021 NOSIG
Loading
Personal Weather Stations






























Interactive Weather Map
Tropical Storm Tracking
New forecast layout! Learn more

10-Day Weather Forecast

Advertisements
Track Severe Weather on mobile